< < Back
Terminal Aerodrome Forecast


Current Version              Previous Versions:   1  2  3  4  5  6  7  8  9  

Terminal Aerodrome Forecast

613
FTUS42 KFFC 290500
TAFATL
TAF
KATL 290525Z 2906/3012 33008KT P6SM SKC
     FM291600 32012G18KT P6SM SCT050
     FM300100 32008KT P6SM SKC
     FM300900 35006KT P6SM SKC=



Latest METAR

466
SAUS70 KWBC 290800 RRF
MTRATL
METAR KATL 290752Z 33009KT 10SM CLR 21/16 A2996 RMK AO2 SLP134 T02060156
$


USA.gov is the U.S. government's official web portal to all federal, state and local government web resources and services.